Time;durP1;ratioP1;P1;durP2;ratioP2;P2;SDS_P1;SDS_P2;PMS_P1;PMS_P2;Temp;Humidity;BMP_temperature;BMP_pressure;BME280_temperature;BME280_humidity;BME280_pressure;Samples;Min_cycle;Max_cycle;Signal;HPM_P1;HPM_P2
2021/05/24 14:45:10;;;;;;;1.00;1.00;;;19.40;82.30;;;;;;6217064;23;20661;-95
2021/05/24 15:04:58;;;;;;;1.13;1.03;;;19.80;69.70;;;;;;6180502;23;20770;-88
2021/05/24 15:07:23;;;;;;;1.17;0.70;;;20.20;69.40;;;;;;6176334;23;20404;-86
2021/05/24 15:09:49;;;;;;;1.17;0.80;;;20.20;68.70;;;;;;6150725;23;20505;-87
2021/05/24 15:12:15;;;;;;;0.90;0.90;;;19.90;66.90;;;;;;6150828;23;20172;-87
2021/05/24 15:14:42;;;;;;;1.60;0.97;;;19.60;66.00;;;;;;6146475;23;20194;-85
2021/05/24 15:17:08;;;;;;;1.53;0.80;;;19.50;68.40;;;;;;6150247;23;20164;-87
2021/05/24 15:19:35;;;;;;;1.10;0.87;;;19.40;69.50;;;;;;6151496;23;20398;-90
2021/05/24 15:22:01;;;;;;;1.77;0.93;;;19.30;67.20;;;;;;6175601;23;20171;-92
2021/05/24 15:24:27;;;;;;;1.77;0.90;;;19.20;68.70;;;;;;6151058;23;20387;-92
2021/05/24 15:26:53;;;;;;;1.50;1.40;;;19.00;68.10;;;;;;6150989;23;20835;-91
2021/05/24 15:29:20;;;;;;;1.40;1.10;;;18.90;68.80;;;;;;6151838;23;20188;-93
2021/05/24 15:31:49;;;;;;;1.23;1.00;;;18.70;67.90;;;;;;6152005;23;20213;-90
2021/05/24 15:34:15;;;;;;;0.70;0.70;;;18.70;69.50;;;;;;6151487;23;20399;-91
2021/05/24 15:36:42;;;;;;;1.27;0.87;;;18.70;70.60;;;;;;6150279;23;20415;-91
2021/05/24 15:39:12;;;;;;;1.37;0.70;;;18.60;69.80;;;;;;6154050;23;20431;-94
2021/05/24 15:41:39;;;;;;;1.10;0.73;;;18.60;68.30;;;;;;6152785;23;20400;-93
2021/05/24 15:44:06;;;;;;;1.13;0.90;;;18.70;69.40;;;;;;6146971;23;20395;-91
2021/05/24 15:46:32;;;;;;;2.30;1.07;;;18.80;67.80;;;;;;6151040;23;20458;-93
2021/05/24 15:48:59;;;;;;;1.80;0.90;;;18.80;69.10;;;;;;6152531;23;20399;-93
2021/05/24 15:51:26;;;;;;;2.70;0.87;;;18.70;68.80;;;;;;6153910;23;20407;-93
2021/05/24 15:53:52;;;;;;;1.13;0.90;;;18.70;69.30;;;;;;6157316;23;20164;-93
2021/05/24 15:56:18;;;;;;;3.17;0.93;;;18.60;69.70;;;;;;6154936;23;20430;-93
2021/05/24 15:58:43;;;;;;;1.77;1.27;;;18.40;71.20;;;;;;6152929;23;20494;-93
2021/05/24 16:01:11;;;;;;;1.43;1.00;;;18.40;71.70;;;;;;6151073;23;20157;-93
2021/05/24 16:03:37;;;;;;;1.40;1.30;;;18.30;71.50;;;;;;6162731;23;20179;-91
2021/05/24 16:06:03;;;;;;;3.20;1.30;;;18.30;72.10;;;;;;6180581;23;21239;-88
2021/05/24 16:08:29;;;;;;;2.30;1.63;;;18.30;72.50;;;;;;6181955;23;20164;-91
2021/05/24 16:10:55;;;;;;;1.27;0.97;;;18.30;72.40;;;;;;6185605;23;20191;-91
2021/05/24 16:13:32;;;;;;;1.00;0.80;;;18.40;72.40;;;;;;6209079;23;20155;-91
2021/05/24 16:15:59;;;;;;;3.33;1.20;;;18.40;72.30;;;;;;6182895;23;20774;-91
2021/05/24 16:18:26;;;;;;;1.53;1.20;;;18.40;70.60;;;;;;6183658;23;20465;-94
2021/05/24 16:20:55;;;;;;;1.53;1.00;;;18.40;70.60;;;;;;6181109;23;20502;-94
2021/05/24 16:23:25;;;;;;;2.93;1.50;;;18.30;70.30;;;;;;6182032;23;20383;-92
2021/05/24 16:26:24;;;;;;;1.30;1.20;;;18.30;70.00;;;;;;6205957;23;20382;-90
2021/05/24 16:29:09;;;;;;;1.20;1.10;;;18.20;70.20;;;;;;6187358;23;20383;-90
2021/05/24 16:31:35;;;;;;;1.10;1.00;;;18.10;71.60;;;;;;6181021;23;20406;-89
2021/05/24 16:34:01;;;;;;;1.17;1.07;;;18.00;71.60;;;;;;6181160;23;20403;-90
2021/05/24 16:36:26;;;;;;;1.13;0.90;;;18.00;72.40;;;;;;6181845;23;20174;-89
2021/05/24 16:38:53;;;;;;;2.50;2.30;;;17.90;72.50;;;;;;6182192;23;20174;-90
2021/05/24 16:41:20;;;;;;;2.30;2.20;;;17.80;72.90;;;;;;6180944;23;20234;-90
2021/05/24 16:43:46;;;;;;;2.63;1.60;;;17.60;77.60;;;;;;6181737;23;20935;-90
2021/05/24 16:46:13;;;;;;;3.77;1.43;;;17.30;81.10;;;;;;6180277;23;20394;-89
2021/05/24 16:48:40;;;;;;;2.67;1.50;;;17.20;82.80;;;;;;6181217;23;20172;-88
2021/05/24 16:51:05;;;;;;;2.00;1.80;;;17.00;84.00;;;;;;6181265;23;20502;-88
2021/05/24 16:53:31;;;;;;;2.77;1.67;;;16.70;86.10;;;;;;6182037;23;20395;-88
2021/05/24 16:55:59;;;;;;;3.17;1.80;;;16.50;87.70;;;;;;6177321;23;20167;-89
2021/05/24 16:58:26;;;;;;;3.00;1.20;;;16.20;89.70;;;;;;6180899;23;20228;-88
2021/05/24 17:00:51;;;;;;;2.30;1.30;;;16.10;90.50;;;;;;6178501;23;20407;-88
2021/05/24 17:03:22;;;;;;;3.27;2.93;;;16.00;91.00;;;;;;6181006;23;20403;-88
2021/05/24 17:05:50;;;;;;;3.90;3.60;;;16.00;91.40;;;;;;6182372;23;20264;-89
2021/05/24 17:08:17;;;;;;;4.93;3.03;;;15.90;91.40;;;;;;6180097;23;20395;-89
2021/05/24 17:10:44;;;;;;;4.10;3.40;;;15.80;91.90;;;;;;6180355;23;20534;-88
2021/05/24 17:13:16;;;;;;;1.73;1.60;;;16.00;92.10;;;;;;6179301;23;20395;-88
2021/05/24 17:15:43;;;;;;;2.50;1.80;;;16.10;92.10;;;;;;6179834;23;20402;-89
2021/05/24 17:18:10;;;;;;;3.60;1.20;;;16.00;92.70;;;;;;6180553;23;20406;-88
2021/05/24 17:20:58;;;;;;;1.70;1.60;;;15.80;92.50;;;;;;6207560;23;20675;-88
2021/05/24 17:23:28;;;;;;;3.73;2.13;;;15.80;92.90;;;;;;6181075;23;20426;-89
2021/05/24 17:25:54;;;;;;;3.90;1.90;;;15.70;93.40;;;;;;6154958;23;20391;-89
2021/05/24 17:28:22;;;;;;;2.77;2.30;;;15.70;93.90;;;;;;6180460;23;20414;-88
2021/05/24 17:30:49;;;;;;;2.10;1.83;;;15.70;94.40;;;;;;6207190;23;20237;-90
2021/05/24 17:33:28;;;;;;;1.57;1.47;;;15.60;94.30;;;;;;6154899;23;20736;-89
2021/05/24 17:35:56;;;;;;;2.73;1.70;;;15.50;94.70;;;;;;6207252;23;20164;-91
2021/05/24 17:38:22;;;;;;;1.73;1.60;;;15.30;94.80;;;;;;6179733;23;20390;-91
2021/05/24 17:40:48;;;;;;;2.70;1.70;;;15.30;95.30;;;;;;6179917;23;20164;-92
2021/05/24 17:43:19;;;;;;;2.07;1.80;;;15.20;95.90;;;;;;6181951;23;20262;-93
2021/05/24 17:45:51;;;;;;;3.40;2.80;;;15.10;96.10;;;;;;6176233;23;20173;-90
2021/05/24 17:48:21;;;;;;;3.40;1.80;;;14.90;97.00;;;;;;6180222;23;20726;-87
2021/05/24 17:51:00;;;;;;;2.50;1.70;;;14.80;97.20;;;;;;6182081;23;20760;-88
2021/05/24 17:53:27;;;;;;;2.50;1.50;;;14.80;97.60;;;;;;6181393;23;20409;-88
2021/05/24 17:55:58;;;;;;;3.50;2.90;;;14.80;98.10;;;;;;6177957;23;20485;-90
2021/05/24 17:58:25;;;;;;;3.37;3.07;;;14.70;98.30;;;;;;6179168;23;20402;-89
2021/05/24 18:00:51;;;;;;;3.37;2.53;;;14.70;98.80;;;;;;6180340;23;20485;-87
2021/05/24 18:03:17;;;;;;;3.60;1.43;;;14.60;99.00;;;;;;6177484;23;20441;-86
2021/05/24 18:05:45;;;;;;;1.73;1.63;;;14.70;99.90;;;;;;6153815;23;20407;-87
2021/05/24 18:08:10;;;;;;;2.60;1.63;;;14.60;99.90;;;;;;6179620;23;20398;-87
2021/05/24 18:10:37;;;;;;;1.67;1.50;;;14.60;99.90;;;;;;6179169;23;20808;-87
2021/05/24 18:13:05;;;;;;;1.67;1.57;;;14.50;99.90;;;;;;6179802;23;20175;-89
2021/05/24 18:15:31;;;;;;;9.13;8.33;;;14.40;99.90;;;;;;6176273;23;20430;-87
